Shiremanstown, Pennsylvania
Current Conditions -  °F | °C
As of 2:56 AM on Thursday 29 Jan 2015 (Local Time) from KCXY Reporting Station
Clear Clear  
Wind Chill:   Ceiling: Unl
Heat Index:   Visibility: 10mi
Dew Point:   Wind: 0mph
Humidity: 100%   Direction: NA
Pressure: 30.32"   Gusts: NA
Location:  40.2347°N, 76.9302°W
Report Text: KCXY 290756Z AUTO 00000KT 10SM CLR M17/M17 A3032 RMK AO2 SLP276 T11671167 $
Loading
Personal Weather Stations






























Interactive Weather Map New forecast layout! Learn more

10-Day Weather Forecast

Advertisements
Track Severe Weather on mobile